Time;durP1;ratioP1;P1;durP2;ratioP2;P2;SDS_P1;SDS_P2;PMS_P1;PMS_P2;Temp;Humidity;BMP_temperature;BMP_pressure;BME280_temperature;BME280_humidity;BME280_pressure;Samples;Min_cycle;Max_cycle;Signal;HPM_P1;HPM_P2
2023/03/30 00:01:10;;;;;;;;;;;13.60;1.00;;;;;;5026975;28;19952;-64
2023/03/30 00:03:38;;;;;;;;;;;13.60;1.00;;;;;;5031498;28;19932;-64
2023/03/30 00:06:05;;;;;;;;;;;13.60;1.00;;;;;;5025770;28;19999;-64
2023/03/30 00:08:32;;;;;;;;;;;13.60;1.00;;;;;;5032326;28;19925;-63
2023/03/30 00:11:02;;;;;;;;;;;13.50;1.00;;;;;;5025472;28;19971;-63
2023/03/30 00:13:30;;;;;;;;;;;13.50;1.00;;;;;;5032412;28;19925;-63
2023/03/30 00:15:56;;;;;;;;;;;13.50;1.00;;;;;;5025712;28;19933;-63
2023/03/30 00:18:25;;;;;;;;;;;13.40;1.00;;;;;;5032316;28;19925;-63
2023/03/30 00:20:52;;;;;;;;;;;13.50;1.00;;;;;;5025765;28;19933;-63
2023/03/30 00:23:19;;;;;;;;;;;13.50;1.00;;;;;;5029405;28;19932;-64
2023/03/30 00:25:45;;;;;;;;;;;13.50;99.90;;;;;;5027690;28;19987;-64
2023/03/30 00:28:12;;;;;;;;;;;13.60;99.90;;;;;;5031958;28;19929;-63
2023/03/30 00:30:39;;;;;;;;;;;13.50;99.90;;;;;;5025960;28;19980;-63
2023/03/30 00:33:05;;;;;;;;;;;13.50;99.90;;;;;;5031593;28;20683;-64
2023/03/30 00:35:33;;;;;;;;;;;13.50;99.90;;;;;;5025599;28;19932;-64
2023/03/30 00:38:01;;;;;;;;;;;13.50;99.90;;;;;;5031676;28;19932;-64
2023/03/30 00:40:28;;;;;;;;;;;13.60;99.90;;;;;;5031091;28;20387;-64
2023/03/30 00:42:57;;;;;;;;;;;13.70;99.90;;;;;;5035581;28;19971;-64
2023/03/30 00:45:25;;;;;;;;;;;13.70;99.90;;;;;;5022390;28;19925;-64
2023/03/30 00:47:55;;;;;;;;;;;13.70;99.90;;;;;;5035632;28;19932;-64
2023/03/30 00:50:23;;;;;;;;;;;13.70;99.90;;;;;;5029602;28;20008;-64
2023/03/30 00:52:52;;;;;;;;;;;13.70;99.90;;;;;;5031091;28;20430;-63
2023/03/30 00:55:20;;;;;;;;;;;13.70;99.90;;;;;;5035716;28;19925;-64
2023/03/30 00:57:48;;;;;;;;;;;13.70;99.90;;;;;;5029010;28;19933;-63
2023/03/30 01:00:15;;;;;;;;;;;13.70;99.90;;;;;;5031134;28;20453;-63
2023/03/30 01:02:44;;;;;;;;;;;13.60;99.90;;;;;;5035214;28;19932;-64
2023/03/30 01:05:11;;;;;;;;;;;13.70;77.90;;;;;;5027311;28;19925;-64
2023/03/30 01:07:39;;;;;;;;;;;13.80;38.30;;;;;;5035006;28;20379;-63
2023/03/30 01:10:08;;;;;;;;;;;13.70;24.60;;;;;;5031016;28;19929;-63
2023/03/30 01:12:35;;;;;;;;;;;13.70;26.00;;;;;;5031491;28;19925;-62
2023/03/30 01:15:02;;;;;;;;;;;13.70;6.20;;;;;;5031616;28;19925;-63
2023/03/30 01:17:31;;;;;;;;;;;13.70;6.60;;;;;;5032691;28;19945;-63
2023/03/30 01:20:14;;;;;;;;;;;13.80;1.00;;;;;;5025254;28;19924;-63
2023/03/30 01:22:48;;;;;;;;;;;13.80;1.00;;;;;;5032457;28;20307;-63
2023/03/30 01:25:35;;;;;;;;;;;13.90;1.00;;;;;;5024312;28;19926;-63
2023/03/30 01:28:11;;;;;;;;;;;13.90;1.00;;;;;;5031618;28;19932;-63
2023/03/30 01:30:47;;;;;;;;;;;14.10;1.00;;;;;;5028744;28;20380;-62
2023/03/30 01:33:29;;;;;;;;;;;14.10;1.00;;;;;;5033441;28;20466;-63
2023/03/30 01:36:11;;;;;;;;;;;14.20;1.00;;;;;;5026325;28;20435;-63
2023/03/30 01:39:11;;;;;;;;;;;14.20;1.00;;;;;;5028378;28;19925;-62
2023/03/30 01:41:46;;;;;;;;;;;14.30;1.00;;;;;;5031389;28;19925;-62
2023/03/30 01:44:15;;;;;;;;;;;14.30;1.00;;;;;;5033179;28;20322;-63
2023/03/30 01:46:46;;;;;;;;;;;14.20;1.00;;;;;;5031907;28;19952;-63
2023/03/30 01:49:15;;;;;;;;;;;14.20;1.00;;;;;;5033830;28;19925;-63
2023/03/30 01:51:45;;;;;;;;;;;14.30;1.00;;;;;;5036938;28;19937;-62
2023/03/30 01:54:13;;;;;;;;;;;14.30;1.00;;;;;;5034778;28;19952;-63
2023/03/30 01:56:44;;;;;;;;;;;14.50;1.00;;;;;;5035325;28;19952;-62
2023/03/30 01:59:12;;;;;;;;;;;14.50;1.00;;;;;;5027355;28;21385;-63
2023/03/30 02:01:40;;;;;;;;;;;14.50;99.90;;;;;;5037553;28;19972;-63
2023/03/30 02:04:08;;;;;;;;;;;14.40;99.90;;;;;;5033198;28;20295;-63
2023/03/30 02:06:38;;;;;;;;;;;14.40;99.90;;;;;;5034484;28;19972;-63
2023/03/30 02:09:06;;;;;;;;;;;14.40;99.90;;;;;;5037271;28;19976;-63
2023/03/30 02:11:33;;;;;;;;;;;14.40;99.90;;;;;;5025391;28;19980;-63
2023/03/30 02:14:03;;;;;;;;;;;14.40;99.90;;;;;;5033411;28;20020;-62
2023/03/30 02:16:33;;;;;;;;;;;14.50;99.90;;;;;;5030559;28;19925;-63
2023/03/30 02:19:00;;;;;;;;;;;14.60;99.90;;;;;;5031428;28;19929;-63
2023/03/30 02:21:26;;;;;;;;;;;14.60;99.90;;;;;;5030416;28;19928;-63
2023/03/30 02:23:54;;;;;;;;;;;14.70;99.90;;;;;;5033083;28;19975;-63
2023/03/30 02:26:21;;;;;;;;;;;14.70;99.90;;;;;;5029948;28;19925;-63
2023/03/30 02:28:49;;;;;;;;;;;14.70;99.90;;;;;;5033114;28;19925;-63
2023/03/30 02:31:17;;;;;;;;;;;14.70;99.90;;;;;;5028947;28;19988;-64
2023/03/30 02:33:51;;;;;;;;;;;14.80;99.90;;;;;;5030345;28;19925;-63
2023/03/30 02:36:22;;;;;;;;;;;14.70;99.90;;;;;;5033358;28;20342;-63
2023/03/30 02:39:05;;;;;;;;;;;14.70;99.90;;;;;;5032906;28;19979;-63
2023/03/30 02:41:39;;;;;;;;;;;14.80;99.90;;;;;;5027875;28;19929;-64
2023/03/30 02:44:10;;;;;;;;;;;14.80;99.90;;;;;;5028628;28;20508;-63
2023/03/30 02:46:46;;;;;;;;;;;14.80;99.90;;;;;;5029464;28;20338;-63
2023/03/30 02:49:15;;;;;;;;;;;14.80;99.90;;;;;;5027126;28;19925;-63
2023/03/30 02:51:45;;;;;;;;;;;14.80;99.90;;;;;;5032306;28;19932;-63
2023/03/30 02:54:16;;;;;;;;;;;14.80;99.90;;;;;;5030618;28;19971;-63
2023/03/30 02:56:46;;;;;;;;;;;14.80;99.90;;;;;;5031024;28;19925;-63
2023/03/30 02:59:15;;;;;;;;;;;14.70;99.90;;;;;;5027570;28;19980;-63
2023/03/30 03:01:46;;;;;;;;;;;14.70;99.90;;;;;;5031744;28;19933;-63
2023/03/30 03:04:14;;;;;;;;;;;14.70;99.90;;;;;;5029104;28;20404;-63
2023/03/30 03:06:41;;;;;;;;;;;14.60;99.90;;;;;;5032073;28;20285;-63
2023/03/30 03:09:08;;;;;;;;;;;14.60;99.90;;;;;;5030070;28;19984;-63
2023/03/30 03:11:35;;;;;;;;;;;14.60;99.90;;;;;;5031490;28;20401;-63
2023/03/30 03:14:01;;;;;;;;;;;14.60;99.90;;;;;;5031073;28;19987;-63
2023/03/30 03:16:28;;;;;;;;;;;14.50;99.90;;;;;;5030681;28;20315;-63
2023/03/30 03:18:56;;;;;;;;;;;14.60;99.90;;;;;;5031331;28;19971;-63
2023/03/30 03:21:23;;;;;;;;;;;14.60;99.90;;;;;;5030281;28;19925;-63
2023/03/30 03:23:49;;;;;;;;;;;14.60;99.90;;;;;;5032390;28;19929;-62
2023/03/30 03:26:17;;;;;;;;;;;14.70;99.90;;;;;;5029247;28;19983;-63
2023/03/30 03:28:43;;;;;;;;;;;14.60;99.90;;;;;;5032557;28;20449;-63
2023/03/30 03:31:11;;;;;;;;;;;14.60;99.90;;;;;;5028344;28;19932;-63
2023/03/30 03:33:37;;;;;;;;;;;14.60;99.90;;;;;;5032301;28;20357;-63
2023/03/30 03:36:05;;;;;;;;;;;14.60;99.90;;;;;;5025701;28;19929;-62
2023/03/30 03:38:32;;;;;;;;;;;14.70;99.90;;;;;;5028899;28;19979;-62
2023/03/30 03:40:59;;;;;;;;;;;14.70;99.90;;;;;;5032628;28;19951;-63
2023/03/30 03:43:26;;;;;;;;;;;14.80;99.90;;;;;;5030467;28;19971;-63
2023/03/30 03:45:52;;;;;;;;;;;14.80;99.90;;;;;;5028024;28;19925;-62
2023/03/30 03:48:20;;;;;;;;;;;14.80;99.90;;;;;;5032177;28;19971;-63
2023/03/30 03:50:49;;;;;;;;;;;14.80;99.90;;;;;;5028967;28;19929;-62
2023/03/30 03:53:17;;;;;;;;;;;14.80;99.90;;;;;;5032314;28;19925;-63
2023/03/30 03:55:43;;;;;;;;;;;14.80;99.90;;;;;;5026373;28;19925;-63
2023/03/30 03:58:10;;;;;;;;;;;14.80;99.90;;;;;;5032007;28;19932;-63
2023/03/30 04:00:37;;;;;;;;;;;14.70;99.90;;;;;;5028439;28;19925;-62
2023/03/30 04:03:04;;;;;;;;;;;14.70;99.90;;;;;;5031897;28;19929;-63
2023/03/30 04:05:30;;;;;;;;;;;14.70;99.90;;;;;;5029580;28;19944;-63
2023/03/30 04:07:57;;;;;;;;;;;14.70;99.90;;;;;;5032114;28;20065;-63
2023/03/30 04:10:25;;;;;;;;;;;14.70;99.90;;;;;;5027667;28;19925;-63
2023/03/30 04:12:54;;;;;;;;;;;14.60;99.90;;;;;;5032299;28;19925;-63
2023/03/30 04:15:20;;;;;;;;;;;14.60;99.90;;;;;;5031579;28;19932;-63
2023/03/30 04:17:48;;;;;;;;;;;14.60;99.90;;;;;;5035813;28;20338;-62
2023/03/30 04:20:15;;;;;;;;;;;14.60;99.90;;;;;;5033877;28;19962;-63
2023/03/30 04:22:44;;;;;;;;;;;14.60;99.90;;;;;;5036346;28;19960;-63
2023/03/30 04:25:13;;;;;;;;;;;14.70;99.90;;;;;;5030766;28;20319;-63
2023/03/30 04:27:42;;;;;;;;;;;14.70;99.90;;;;;;5035896;28;19932;-63
2023/03/30 04:30:09;;;;;;;;;;;14.70;99.90;;;;;;5028040;28;19929;-63
2023/03/30 04:32:37;;;;;;;;;;;14.80;99.90;;;;;;5035635;28;19929;-63
2023/03/30 04:35:04;;;;;;;;;;;14.80;99.90;;;;;;5033808;28;20360;-63
2023/03/30 04:37:31;;;;;;;;;;;14.70;99.90;;;;;;5035812;28;19929;-63
2023/03/30 04:39:57;;;;;;;;;;;14.70;99.90;;;;;;5031507;28;19987;-63
2023/03/30 04:42:29;;;;;;;;;;;14.70;99.90;;;;;;5035606;28;20304;-63
2023/03/30 04:44:57;;;;;;;;;;;14.70;99.90;;;;;;5031186;28;20016;-63
2023/03/30 04:47:24;;;;;;;;;;;14.70;99.90;;;;;;5032176;28;19929;-63
2023/03/30 04:49:50;;;;;;;;;;;14.70;99.90;;;;;;5030414;28;19994;-63
2023/03/30 04:52:17;;;;;;;;;;;14.70;99.90;;;;;;5030956;28;19979;-64
2023/03/30 04:54:43;;;;;;;;;;;14.70;99.90;;;;;;5030593;28;19943;-63
2023/03/30 04:57:11;;;;;;;;;;;14.60;99.90;;;;;;5035246;28;19925;-62
2023/03/30 04:59:37;;;;;;;;;;;14.60;1.00;;;;;;5029295;28;20411;-63
2023/03/30 05:02:05;;;;;;;;;;;14.50;1.00;;;;;;5030122;28;19975;-63
2023/03/30 05:04:32;;;;;;;;;;;14.40;1.00;;;;;;5030690;28;19926;-63
2023/03/30 05:06:58;;;;;;;;;;;14.40;1.00;;;;;;5032356;28;19936;-63
2023/03/30 05:09:25;;;;;;;;;;;14.50;1.00;;;;;;5030623;28;19991;-63
2023/03/30 05:11:51;;;;;;;;;;;14.50;1.00;;;;;;5032174;28;19925;-63
2023/03/30 05:14:18;;;;;;;;;;;14.60;1.00;;;;;;5029461;28;20439;-64
2023/03/30 05:16:44;;;;;;;;;;;14.60;1.00;;;;;;5029929;28;19925;-64
2023/03/30 05:19:12;;;;;;;;;;;14.60;1.00;;;;;;5034598;28;19925;-63
2023/03/30 05:21:39;;;;;;;;;;;14.60;1.00;;;;;;5030698;28;20291;-63
2023/03/30 05:24:06;;;;;;;;;;;14.60;1.00;;;;;;5034460;28;20388;-64
2023/03/30 05:26:33;;;;;;;;;;;14.60;1.00;;;;;;5033502;28;19925;-64
2023/03/30 05:28:59;;;;;;;;;;;14.60;1.00;;;;;;5033313;28;20372;-63
2023/03/30 05:31:26;;;;;;;;;;;14.60;1.00;;;;;;5032096;28;19933;-63
2023/03/30 05:33:53;;;;;;;;;;;14.60;1.00;;;;;;5035266;28;19925;-65
2023/03/30 05:36:21;;;;;;;;;;;14.60;1.00;;;;;;5035624;28;19925;-64
2023/03/30 05:38:47;;;;;;;;;;;14.60;1.00;;;;;;5034971;28;19925;-62
2023/03/30 05:41:14;;;;;;;;;;;14.60;1.00;;;;;;5028083;28;19925;-63
2023/03/30 05:43:41;;;;;;;;;;;14.50;1.00;;;;;;5035410;28;20459;-63
2023/03/30 05:46:07;;;;;;;;;;;14.50;1.00;;;;;;5034568;28;19929;-62
2023/03/30 05:48:34;;;;;;;;;;;14.50;1.00;;;;;;5034133;28;19979;-70
2023/03/30 05:51:01;;;;;;;;;;;14.40;1.00;;;;;;5018020;28;19930;-65
2023/03/30 05:53:28;;;;;;;;;;;14.40;1.00;;;;;;5027378;28;19925;-67
2023/03/30 05:55:55;;;;;;;;;;;14.40;1.00;;;;;;5030847;28;19929;-65
2023/03/30 05:58:22;;;;;;;;;;;14.40;1.00;;;;;;5032583;28;20348;-65
2023/03/30 06:00:48;;;;;;;;;;;14.30;1.00;;;;;;5030362;28;19925;-66
2023/03/30 06:03:15;;;;;;;;;;;14.30;1.00;;;;;;5033975;28;20011;-66
2023/03/30 06:05:42;;;;;;;;;;;14.30;1.00;;;;;;5031710;28;19968;-69
2023/03/30 06:08:09;;;;;;;;;;;14.20;1.00;;;;;;5033036;28;20092;-68
2023/03/30 06:10:37;;;;;;;;;;;14.20;1.00;;;;;;5029130;28;19936;-66
2023/03/30 06:13:04;;;;;;;;;;;14.20;6.80;;;;;;5033519;28;20337;-66
2023/03/30 06:15:30;;;;;;;;;;;14.20;17.60;;;;;;5031023;28;19932;-66
2023/03/30 06:17:58;;;;;;;;;;;14.20;8.00;;;;;;5033030;28;19932;-65
2023/03/30 06:20:24;;;;;;;;;;;14.20;21.40;;;;;;5031177;28;20016;-68
2023/03/30 06:22:51;;;;;;;;;;;14.10;48.60;;;;;;5032830;28;19979;-64
2023/03/30 06:25:19;;;;;;;;;;;14.10;31.50;;;;;;5028910;28;19925;-65
2023/03/30 06:27:47;;;;;;;;;;;14.10;67.10;;;;;;5032593;28;20402;-65
2023/03/30 06:30:14;;;;;;;;;;;14.00;84.90;;;;;;5025439;28;19984;-65
2023/03/30 06:32:40;;;;;;;;;;;14.00;81.80;;;;;;5031066;28;20015;-65
2023/03/30 06:35:07;;;;;;;;;;;14.10;99.90;;;;;;5031069;28;19999;-66
2023/03/30 06:37:35;;;;;;;;;;;14.10;99.90;;;;;;5031661;28;19925;-64
2023/03/30 06:40:07;;;;;;;;;;;14.10;99.90;;;;;;5030226;28;19925;-65
2023/03/30 06:42:33;;;;;;;;;;;14.10;92.30;;;;;;5028438;28;19929;-65
2023/03/30 06:45:02;;;;;;;;;;;14.20;97.80;;;;;;5026138;28;19929;-66
2023/03/30 06:47:28;;;;;;;;;;;14.10;89.80;;;;;;5028996;28;19929;-64
2023/03/30 06:49:55;;;;;;;;;;;14.10;99.70;;;;;;5029947;28;19929;-64
2023/03/30 06:52:22;;;;;;;;;;;14.20;94.60;;;;;;5032198;28;19925;-65
2023/03/30 06:54:48;;;;;;;;;;;14.30;36.70;;;;;;5031632;28;20395;-64
2023/03/30 06:57:15;;;;;;;;;;;14.50;72.20;;;;;;5032163;28;19929;-66
2023/03/30 06:59:41;;;;;;;;;;;14.70;1.00;;;;;;5027893;28;20392;-64
2023/03/30 07:02:13;;;;;;;;;;;14.90;1.00;;;;;;5032623;28;19929;-65
2023/03/30 07:04:40;;;;;;;;;;;15.10;1.00;;;;;;5026284;28;19933;-66
2023/03/30 07:07:07;;;;;;;;;;;15.20;1.00;;;;;;5031260;28;19936;-65
2023/03/30 07:09:33;;;;;;;;;;;15.10;1.00;;;;;;5027760;28;19948;-63
2023/03/30 07:12:00;;;;;;;;;;;15.00;1.00;;;;;;5032316;28;19925;-64
2023/03/30 07:14:27;;;;;;;;;;;14.90;1.00;;;;;;5027830;28;20334;-62
2023/03/30 07:16:53;;;;;;;;;;;14.90;1.00;;;;;;5031477;28;20466;-66
2023/03/30 07:19:21;;;;;;;;;;;14.90;1.00;;;;;;5026078;28;19933;-67
2023/03/30 07:21:48;;;;;;;;;;;14.80;1.00;;;;;;5031197;28;19929;-65
2023/03/30 07:24:15;;;;;;;;;;;14.80;1.00;;;;;;5029614;28;19925;-66
2023/03/30 07:26:41;;;;;;;;;;;14.80;1.00;;;;;;5030165;28;19971;-65
2023/03/30 07:29:08;;;;;;;;;;;14.80;1.00;;;;;;5023939;28;19937;-65
2023/03/30 07:31:35;;;;;;;;;;;14.70;1.00;;;;;;5026121;28;19929;-66
2023/03/30 07:34:03;;;;;;;;;;;14.60;1.00;;;;;;5032051;28;19932;-65
2023/03/30 07:36:30;;;;;;;;;;;14.50;1.00;;;;;;5028366;28;19952;-65
2023/03/30 07:38:58;;;;;;;;;;;14.50;1.00;;;;;;5031429;28;20407;-65
2023/03/30 07:41:25;;;;;;;;;;;14.50;1.00;;;;;;5027549;28;20379;-64
2023/03/30 07:43:51;;;;;;;;;;;14.40;1.00;;;;;;5030025;28;19931;-64
2023/03/30 07:46:18;;;;;;;;;;;14.40;1.00;;;;;;5027495;28;19936;-64
2023/03/30 07:48:44;;;;;;;;;;;14.40;1.00;;;;;;5031805;28;19995;-62
2023/03/30 07:51:12;;;;;;;;;;;14.30;1.00;;;;;;5028863;28;19925;-64
2023/03/30 07:53:40;;;;;;;;;;;14.30;1.00;;;;;;5031826;28;20012;-67
2023/03/30 07:56:07;;;;;;;;;;;14.30;41.70;;;;;;5026615;28;19925;-67
2023/03/30 07:58:34;;;;;;;;;;;14.40;32.90;;;;;;5031781;28;20011;-63
2023/03/30 08:01:02;;;;;;;;;;;14.40;30.50;;;;;;5028539;28;20019;-63
2023/03/30 08:03:30;;;;;;;;;;;14.50;15.80;;;;;;5022554;28;19925;-64
2023/03/30 08:05:59;;;;;;;;;;;14.60;25.50;;;;;;5026264;28;19925;-64
2023/03/30 08:08:26;;;;;;;;;;;14.60;1.00;;;;;;5030864;28;19971;-67
2023/03/30 08:10:54;;;;;;;;;;;14.70;56.50;;;;;;5026924;28;19925;-69
2023/03/30 08:13:20;;;;;;;;;;;14.70;99.90;;;;;;5030268;28;19972;-65
2023/03/30 08:15:47;;;;;;;;;;;14.60;99.90;;;;;;5026400;28;19952;-66
2023/03/30 08:18:14;;;;;;;;;;;14.50;99.90;;;;;;5031185;28;20343;-65
2023/03/30 08:20:41;;;;;;;;;;;14.60;99.90;;;;;;5027321;28;19929;-66
2023/03/30 08:23:08;;;;;;;;;;;14.70;99.90;;;;;;5031226;28;19929;-63
2023/03/30 08:25:35;;;;;;;;;;;14.70;99.90;;;;;;5026343;28;19971;-65
2023/03/30 08:28:04;;;;;;;;;;;14.60;89.10;;;;;;5031136;28;19929;-61
2023/03/30 08:30:30;;;;;;;;;;;14.70;99.90;;;;;;5028092;28;19925;-62
2023/03/30 08:32:57;;;;;;;;;;;14.70;99.90;;;;;;5028137;28;19925;-62
2023/03/30 08:35:24;;;;;;;;;;;14.70;99.90;;;;;;5025753;28;19932;-62
2023/03/30 08:37:51;;;;;;;;;;;14.60;99.90;;;;;;5025809;28;19925;-61
2023/03/30 08:40:18;;;;;;;;;;;14.60;99.90;;;;;;5025874;28;20291;-61
2023/03/30 08:42:50;;;;;;;;;;;14.70;99.90;;;;;;5030458;28;20442;-62
2023/03/30 08:45:19;;;;;;;;;;;14.60;99.90;;;;;;5022620;28;19925;-61
2023/03/30 08:47:47;;;;;;;;;;;14.50;99.90;;;;;;5031531;28;20590;-62
2023/03/30 08:50:15;;;;;;;;;;;14.50;99.90;;;;;;5026740;28;19925;-64
2023/03/30 08:52:42;;;;;;;;;;;14.60;99.90;;;;;;5029328;28;20406;-64
2023/03/30 08:55:15;;;;;;;;;;;14.70;99.90;;;;;;5027632;28;19929;-68
2023/03/30 08:57:50;;;;;;;;;;;14.90;41.70;;;;;;5025781;28;19925;-66
2023/03/30 09:00:26;;;;;;;;;;;14.90;1.00;;;;;;5026034;28;19932;-66
2023/03/30 09:02:55;;;;;;;;;;;14.90;1.00;;;;;;5033868;28;19956;-66
2023/03/30 09:05:24;;;;;;;;;;;14.80;1.00;;;;;;5029435;28;20391;-66
2023/03/30 09:07:55;;;;;;;;;;;14.90;1.00;;;;;;5034444;28;20422;-66
2023/03/30 09:10:22;;;;;;;;;;;15.00;7.30;;;;;;5034370;28;19983;-66
2023/03/30 09:12:51;;;;;;;;;;;14.90;1.00;;;;;;5034854;28;20391;-66
2023/03/30 09:15:20;;;;;;;;;;;14.90;1.00;;;;;;5031959;28;19972;-65
2023/03/30 09:17:48;;;;;;;;;;;15.00;1.00;;;;;;5035199;28;19925;-65
2023/03/30 09:20:16;;;;;;;;;;;14.90;1.00;;;;;;5036096;28;19940;-66
2023/03/30 09:22:44;;;;;;;;;;;15.10;1.00;;;;;;5038628;28;20008;-67
2023/03/30 09:25:18;;;;;;;;;;;15.10;1.00;;;;;;5026834;28;20596;-66
2023/03/30 09:27:54;;;;;;;;;;;15.20;1.00;;;;;;5032817;28;19928;-66
2023/03/30 09:30:25;;;;;;;;;;;15.30;1.00;;;;;;5030871;28;19933;-64
2023/03/30 09:32:57;;;;;;;;;;;15.30;1.00;;;;;;5032567;28;19925;-65
2023/03/30 09:35:26;;;;;;;;;;;15.20;1.00;;;;;;5029337;28;19932;-65
2023/03/30 09:37:52;;;;;;;;;;;15.00;1.00;;;;;;5029709;28;19925;-65
2023/03/30 09:40:23;;;;;;;;;;;15.00;1.00;;;;;;5028248;28;20336;-65
2023/03/30 09:42:54;;;;;;;;;;;15.20;1.00;;;;;;5033331;28;19995;-65
2023/03/30 09:45:26;;;;;;;;;;;15.40;1.00;;;;;;5033438;28;19980;-67
2023/03/30 09:47:52;;;;;;;;;;;15.50;1.00;;;;;;5025967;28;19966;-67
2023/03/30 09:50:22;;;;;;;;;;;15.50;1.00;;;;;;5033036;28;20358;-65
2023/03/30 09:52:55;;;;;;;;;;;15.50;1.00;;;;;;5029102;28;19932;-66
2023/03/30 09:55:26;;;;;;;;;;;15.30;99.90;;;;;;5031445;28;19932;-64
2023/03/30 09:57:53;;;;;;;;;;;15.10;99.90;;;;;;5029264;28;20040;-65
2023/03/30 10:00:30;;;;;;;;;;;14.80;1.00;;;;;;5028936;28;19925;-65
2023/03/30 10:02:57;;;;;;;;;;;14.70;1.00;;;;;;5032470;28;20367;-65
2023/03/30 10:05:23;;;;;;;;;;;14.50;1.00;;;;;;5023354;28;19925;-65
2023/03/30 10:07:53;;;;;;;;;;;14.30;1.00;;;;;;5032776;28;19929;-66
2023/03/30 10:10:28;;;;;;;;;;;13.80;6.30;;;;;;5030847;28;19925;-65
2023/03/30 10:12:56;;;;;;;;;;;13.70;99.90;;;;;;5033183;28;19979;-68
2023/03/30 10:15:29;;;;;;;;;;;13.50;99.90;;;;;;5030843;28;19925;-68
2023/03/30 10:18:00;;;;;;;;;;;13.30;99.90;;;;;;5033954;28;19925;-67
2023/03/30 10:20:28;;;;;;;;;;;13.00;55.30;;;;;;5028462;28;19929;-64
2023/03/30 10:22:55;;;;;;;;;;;13.10;99.90;;;;;;5032051;28;19975;-63
2023/03/30 10:25:23;;;;;;;;;;;13.00;99.90;;;;;;5028392;28;19925;-64
2023/03/30 10:27:52;;;;;;;;;;;12.90;68.90;;;;;;5032706;28;19972;-65
2023/03/30 10:30:20;;;;;;;;;;;12.80;99.90;;;;;;5028573;28;19925;-65
2023/03/30 10:32:47;;;;;;;;;;;12.70;1.00;;;;;;5031019;28;19971;-66
2023/03/30 10:35:18;;;;;;;;;;;12.70;1.00;;;;;;5029400;28;19925;-65
2023/03/30 10:37:46;;;;;;;;;;;12.70;1.00;;;;;;5032102;28;19952;-64
2023/03/30 10:40:17;;;;;;;;;;;12.60;1.00;;;;;;5029541;28;19940;-64
2023/03/30 10:42:45;;;;;;;;;;;12.60;1.00;;;;;;5032406;28;20340;-64
2023/03/30 10:45:15;;;;;;;;;;;12.70;1.00;;;;;;5026028;28;19932;-64
2023/03/30 10:47:47;;;;;;;;;;;12.80;1.00;;;;;;5032676;28;19925;-64
2023/03/30 10:50:19;;;;;;;;;;;12.90;1.00;;;;;;5027880;28;19925;-64
2023/03/30 10:52:51;;;;;;;;;;;13.10;1.00;;;;;;5031749;28;20392;-64
2023/03/30 10:55:21;;;;;;;;;;;13.20;1.00;;;;;;5029166;28;19986;-64
2023/03/30 10:57:51;;;;;;;;;;;13.30;1.00;;;;;;5031187;28;19978;-63
2023/03/30 11:00:25;;;;;;;;;;;13.30;1.00;;;;;;5025169;28;19932;-63
2023/03/30 11:02:56;;;;;;;;;;;13.40;1.00;;;;;;5030544;28;20388;-63
2023/03/30 11:05:28;;;;;;;;;;;13.60;1.00;;;;;;5029674;28;20044;-63
2023/03/30 11:07:58;;;;;;;;;;;13.80;1.00;;;;;;5030272;28;21635;-66
2023/03/30 11:10:28;;;;;;;;;;;14.10;1.00;;;;;;5028935;28;19932;-63
2023/03/30 11:12:56;;;;;;;;;;;14.40;99.90;;;;;;5031992;28;19928;-63
2023/03/30 11:15:26;;;;;;;;;;;14.50;99.90;;;;;;5027883;28;19925;-67
2023/03/30 11:17:55;;;;;;;;;;;14.60;99.90;;;;;;5026412;28;19925;-65
2023/03/30 11:20:26;;;;;;;;;;;14.40;99.90;;;;;;5031990;28;19951;-66
2023/03/30 11:22:58;;;;;;;;;;;14.20;99.90;;;;;;5026430;28;19929;-65
2023/03/30 11:25:26;;;;;;;;;;;14.10;99.90;;;;;;5032243;28;20406;-65
2023/03/30 11:27:55;;;;;;;;;;;14.00;1.00;;;;;;5028492;28;19925;-65
2023/03/30 11:30:24;;;;;;;;;;;14.20;99.90;;;;;;5027669;28;19935;-65
2023/03/30 11:32:53;;;;;;;;;;;14.20;1.00;;;;;;5031028;28;19925;-65
2023/03/30 11:35:24;;;;;;;;;;;14.20;99.90;;;;;;5029844;28;20336;-65
2023/03/30 11:37:52;;;;;;;;;;;14.40;1.00;;;;;;5031567;28;20372;-66
2023/03/30 11:40:24;;;;;;;;;;;14.40;76.70;;;;;;5027418;28;19925;-66
2023/03/30 11:42:51;;;;;;;;;;;14.60;1.00;;;;;;5031648;28;19925;-66
2023/03/30 11:45:20;;;;;;;;;;;14.80;44.50;;;;;;5024600;28;20002;-67
2023/03/30 11:47:55;;;;;;;;;;;15.00;43.60;;;;;;5026957;28;19924;-66
2023/03/30 11:50:28;;;;;;;;;;;14.80;99.90;;;;;;5030799;28;20022;-66
2023/03/30 11:52:59;;;;;;;;;;;14.80;99.90;;;;;;5028263;28;19935;-68
2023/03/30 11:55:32;;;;;;;;;;;14.70;99.90;;;;;;5030559;28;19925;-66
2023/03/30 11:58:07;;;;;;;;;;;14.60;99.90;;;;;;5026537;28;19929;-64
2023/03/30 12:00:40;;;;;;;;;;;14.70;99.90;;;;;;5029693;28;20410;-66
2023/03/30 12:03:14;;;;;;;;;;;14.80;79.60;;;;;;5027996;28;19929;-64
2023/03/30 12:05:44;;;;;;;;;;;14.50;99.90;;;;;;5027764;28;19936;-63
2023/03/30 12:08:17;;;;;;;;;;;14.60;99.90;;;;;;5031218;28;19925;-64
2023/03/30 12:10:47;;;;;;;;;;;14.40;99.90;;;;;;5026016;28;19925;-64
2023/03/30 12:13:15;;;;;;;;;;;14.50;99.90;;;;;;5027643;28;19932;-64
2023/03/30 12:15:45;;;;;;;;;;;14.20;99.90;;;;;;5027168;28;20864;-65
2023/03/30 12:18:16;;;;;;;;;;;14.20;1.00;;;;;;5031190;28;19952;-68
2023/03/30 12:20:44;;;;;;;;;;;14.40;1.00;;;;;;5028911;28;20020;-67
2023/03/30 12:23:18;;;;;;;;;;;14.70;99.90;;;;;;5031070;28;19929;-66
2023/03/30 12:25:54;;;;;;;;;;;14.50;1.00;;;;;;5027444;28;19986;-65
2023/03/30 12:28:24;;;;;;;;;;;14.30;12.30;;;;;;5028964;28;19968;-64
2023/03/30 12:30:53;;;;;;;;;;;14.20;99.90;;;;;;5026186;28;19925;-65
2023/03/30 12:33:28;;;;;;;;;;;14.30;99.90;;;;;;5031512;28;19925;-66
2023/03/30 12:35:56;;;;;;;;;;;14.50;99.90;;;;;;5026578;28;19929;-67
2023/03/30 12:38:24;;;;;;;;;;;14.40;7.00;;;;;;5035181;28;20024;-68
2023/03/30 12:41:01;;;;;;;;;;;14.40;1.00;;;;;;5032550;28;19926;-67
2023/03/30 12:43:31;;;;;;;;;;;14.20;1.00;;;;;;5035019;28;20397;-68
2023/03/30 12:46:04;;;;;;;;;;;14.10;99.90;;;;;;5029489;28;19932;-67
2023/03/30 12:48:38;;;;;;;;;;;14.00;99.90;;;;;;5034864;28;19936;-64
2023/03/30 12:51:09;;;;;;;;;;;13.90;99.90;;;;;;5031310;28;19936;-68
2023/03/30 12:53:47;;;;;;;;;;;13.90;93.50;;;;;;5036417;28;19925;-69
2023/03/30 12:56:22;;;;;;;;;;;13.50;1.00;;;;;;5026620;28;19972;-66
2023/03/30 12:58:59;;;;;;;;;;;13.30;15.60;;;;;;5038654;28;19925;-65
2023/03/30 13:01:34;;;;;;;;;;;13.00;29.20;;;;;;5037055;28;19932;-65
2023/03/30 13:04:01;;;;;;;;;;;12.90;56.50;;;;;;5033067;28;19929;-65
2023/03/30 13:06:30;;;;;;;;;;;12.80;92.20;;;;;;5034468;28;19932;-65
2023/03/30 13:09:02;;;;;;;;;;;12.70;99.90;;;;;;5030011;28;19925;-66
2023/03/30 13:11:42;;;;;;;;;;;12.60;99.90;;;;;;5034388;28;19925;-71
2023/03/30 13:14:15;;;;;;;;;;;12.60;99.90;;;;;;5023592;28;19929;-69
2023/03/30 13:17:00;;;;;;;;;;;12.50;99.90;;;;;;5027286;28;19933;-65
2023/03/30 13:19:27;;;;;;;;;;;12.40;99.90;;;;;;5028775;28;19995;-65
2023/03/30 13:21:58;;;;;;;;;;;12.20;99.90;;;;;;5033383;28;19933;-68
2023/03/30 13:24:27;;;;;;;;;;;12.10;99.90;;;;;;5032364;28;19929;-66
2023/03/30 13:27:10;;;;;;;;;;;12.00;99.90;;;;;;5030669;28;19929;-65
2023/03/30 13:29:37;;;;;;;;;;;11.80;99.90;;;;;;5028506;28;19979;-65
2023/03/30 13:32:11;;;;;;;;;;;11.70;99.90;;;;;;5029673;28;19988;-68
2023/03/30 13:34:47;;;;;;;;;;;11.70;99.90;;;;;;5029275;28;19955;-71
2023/03/30 13:37:18;;;;;;;;;;;11.90;99.90;;;;;;5025880;28;20285;-72
2023/03/30 13:39:47;;;;;;;;;;;12.00;99.90;;;;;;5030165;28;20350;-67
2023/03/30 13:42:23;;;;;;;;;;;12.30;99.90;;;;;;5030489;28;19929;-67
2023/03/30 13:44:56;;;;;;;;;;;12.60;99.90;;;;;;5032633;28;20391;-68
2023/03/30 13:47:29;;;;;;;;;;;12.70;99.90;;;;;;5034546;28;20391;-66
2023/03/30 13:49:58;;;;;;;;;;;13.00;99.90;;;;;;5032549;28;20299;-66
2023/03/30 13:52:27;;;;;;;;;;;13.20;99.90;;;;;;5034210;28;19925;-66
2023/03/30 13:54:54;;;;;;;;;;;13.20;99.90;;;;;;5033792;28;20334;-69
2023/03/30 13:57:24;;;;;;;;;;;13.20;99.90;;;;;;5029882;28;20445;-68
2023/03/30 13:59:52;;;;;;;;;;;13.30;99.90;;;;;;5031654;28;19925;-67
2023/03/30 14:02:20;;;;;;;;;;;13.30;99.90;;;;;;5034354;28;19925;-68
2023/03/30 14:04:48;;;;;;;;;;;13.60;99.90;;;;;;5029250;28;20399;-69
2023/03/30 14:07:16;;;;;;;;;;;13.70;99.90;;;;;;5037041;28;19980;-68
2023/03/30 14:09:43;;;;;;;;;;;13.80;99.90;;;;;;5027401;28;20328;-68
2023/03/30 14:12:12;;;;;;;;;;;14.00;99.90;;;;;;5034274;28;19929;-74
2023/03/30 14:14:45;;;;;;;;;;;14.10;99.90;;;;;;5032381;28;20016;-68
2023/03/30 14:17:14;;;;;;;;;;;14.20;99.90;;;;;;5032227;28;20390;-68
2023/03/30 14:19:46;;;;;;;;;;;14.40;99.90;;;;;;5027302;28;19926;-67
2023/03/30 14:22:16;;;;;;;;;;;14.40;94.50;;;;;;5030592;28;19933;-69
2023/03/30 14:24:55;;;;;;;;;;;14.40;79.70;;;;;;5027822;28;19925;-70
2023/03/30 14:27:22;;;;;;;;;;;14.50;82.40;;;;;;5032882;28;19933;-68
2023/03/30 14:29:50;;;;;;;;;;;14.40;36.20;;;;;;5029267;28;19925;-70
2023/03/30 14:32:19;;;;;;;;;;;14.50;2.20;;;;;;5028899;28;19929;-69